createdAt,value
2023-03-27T00:00:40.239Z,3.9118
2023-03-27T00:01:41.168Z,3.9087
2023-03-27T00:02:41.865Z,3.9317
2023-03-27T00:03:42.605Z,3.9621
2023-03-27T00:04:42.932Z,3.9700
2023-03-27T00:05:44.006Z,3.9669
2023-03-27T00:06:44.813Z,3.9575
2023-03-27T00:07:45.832Z,3.9556
2023-03-27T00:08:46.705Z,4.0136
2023-03-27T00:09:47.608Z,4.0415
2023-03-27T00:10:48.523Z,4.0498
2023-03-27T00:11:48.628Z,4.0639
2023-03-27T00:12:49.601Z,4.1137
2023-03-27T00:13:51.571Z,4.1327
2023-03-27T00:14:51.045Z,4.1097
2023-03-27T00:15:52.004Z,4.0834
2023-03-27T00:16:53.034Z,4.0504
2023-03-27T00:17:53.339Z,4.0457
2023-03-27T00:18:54.202Z,4.0462
2023-03-27T00:19:55.315Z,4.0203
2023-03-27T00:20:56.173Z,4.0284
2023-03-27T00:21:56.527Z,4.1059
2023-03-27T00:22:57.353Z,4.0782
2023-03-27T00:23:58.093Z,4.0627
2023-03-27T00:24:58.962Z,4.0777
2023-03-27T00:25:59.668Z,4.0632
2023-03-27T00:27:00.543Z,4.0417
2023-03-27T00:28:01.446Z,4.0466
2023-03-27T00:29:02.185Z,4.0488
2023-03-27T00:30:03.124Z,4.0075
2023-03-27T00:31:03.880Z,4.0121
2023-03-27T00:32:04.916Z,4.0023
2023-03-27T00:33:06.162Z,3.9996
2023-03-27T00:34:06.817Z,3.9813
2023-03-27T00:35:07.805Z,3.9761
2023-03-27T00:36:08.803Z,3.9550
2023-03-27T00:37:09.778Z,3.9551
2023-03-27T00:38:10.555Z,3.9338
2023-03-27T00:39:11.453Z,3.9067
2023-03-27T00:40:12.478Z,3.8911
2023-03-27T00:41:13.820Z,3.8812
2023-03-27T00:42:14.845Z,3.8720
2023-03-27T00:43:15.605Z,3.8484
2023-03-27T00:44:16.564Z,3.8545
2023-03-27T00:45:17.485Z,3.8813
2023-03-27T00:46:18.443Z,3.8793
2023-03-27T00:47:18.608Z,3.8452
2023-03-27T00:48:19.651Z,3.8309
2023-03-27T00:50:21.363Z,3.8188
2023-03-27T00:51:21.534Z,3.8157
2023-03-27T00:52:22.376Z,3.8109
2023-03-27T00:53:23.275Z,3.8085
2023-03-27T00:54:24.277Z,3.8307
2023-03-27T00:55:25.097Z,3.8471
2023-03-27T00:56:26.092Z,3.8464
2023-03-27T00:57:26.992Z,3.8358
2023-03-27T00:58:27.986Z,3.8549
2023-03-27T00:59:28.977Z,3.8467
2023-03-27T01:00:29.705Z,3.8522
2023-03-27T01:01:30.933Z,3.8661
2023-03-27T01:02:31.918Z,3.8735
2023-03-27T01:03:32.311Z,3.8599
2023-03-27T01:04:33.670Z,3.8833
2023-03-27T01:05:34.494Z,3.9014
2023-03-27T01:06:35.495Z,3.8860
2023-03-27T01:07:36.273Z,3.8826
2023-03-27T01:10:38.506Z,3.9741
2023-03-27T01:11:39.465Z,3.9783
2023-03-27T01:12:40.209Z,3.9942
2023-03-27T01:13:41.172Z,3.9973
2023-03-27T01:14:42.298Z,4.0300
2023-03-27T01:15:43.161Z,4.0338
2023-03-27T01:16:44.199Z,4.0355
2023-03-27T01:17:45.144Z,4.0484
2023-03-27T01:18:46.220Z,4.0486
2023-03-27T01:19:47.210Z,4.0562
2023-03-27T01:20:48.062Z,4.0757
2023-03-27T01:21:49.069Z,4.1017
2023-03-27T01:22:49.859Z,4.1418
2023-03-27T01:23:59.925Z,4.1275
2023-03-27T01:24:51.012Z,4.1343
2023-03-27T01:25:52.010Z,4.1350
2023-03-27T01:26:52.793Z,4.1646
2023-03-27T01:27:53.905Z,4.1878
2023-03-27T01:29:55.525Z,4.2217
2023-03-27T01:30:56.763Z,4.2412
2023-03-27T01:31:56.813Z,4.2160
2023-03-27T01:32:57.928Z,4.2306
2023-03-27T01:33:58.857Z,4.2374
2023-03-27T01:35:01.140Z,4.2432
2023-03-27T01:36:00.875Z,4.2337
2023-03-27T01:37:01.679Z,4.2339
2023-03-27T01:38:02.700Z,4.2533
2023-03-27T01:39:03.502Z,4.2437
2023-03-27T01:40:04.381Z,4.2593
2023-03-27T01:41:05.417Z,4.2962
2023-03-27T01:42:06.277Z,4.2877
2023-03-27T01:43:07.315Z,4.2647
2023-03-27T01:44:08.133Z,4.2843
2023-03-27T01:45:08.265Z,4.3013
2023-03-27T01:46:09.314Z,4.2965
2023-03-27T01:48:11.309Z,4.3299
2023-03-27T01:49:12.108Z,4.3197
2023-03-27T01:50:13.092Z,4.2937
2023-03-27T01:52:14.751Z,4.3052
2023-03-27T01:53:15.752Z,4.3110
2023-03-27T01:54:16.638Z,4.3327
2023-03-27T01:55:17.536Z,4.3431
2023-03-27T01:56:18.450Z,4.3628
2023-03-27T01:57:19.555Z,4.3375
2023-03-27T01:59:20.288Z,4.3436
2023-03-27T02:00:21.637Z,4.3444
2023-03-27T02:01:21.917Z,4.3406
2023-03-27T02:02:22.900Z,4.3667
2023-03-27T02:03:23.920Z,4.3790
2023-03-27T02:05:24.840Z,4.3795
2023-03-27T02:06:25.772Z,4.3916
2023-03-27T02:07:26.720Z,4.4174
2023-03-27T02:08:27.676Z,4.4266
2023-03-27T02:09:28.489Z,4.4353
2023-03-27T02:10:29.506Z,4.3881
2023-03-27T02:11:29.578Z,4.4207
2023-03-27T02:12:30.545Z,4.4292
2023-03-27T02:13:31.542Z,4.4150
2023-03-27T02:14:32.381Z,4.4183
2023-03-27T02:15:33.002Z,4.4355
2023-03-27T02:16:34.143Z,4.4675
2023-03-27T02:17:34.506Z,4.4714
2023-03-27T02:18:35.582Z,4.4559
2023-03-27T02:19:36.382Z,4.4448
2023-03-27T02:21:38.317Z,4.4592
2023-03-27T02:22:39.918Z,4.4233
2023-03-27T02:23:40.757Z,4.4437
2023-03-27T02:24:41.752Z,4.4804
2023-03-27T02:25:42.771Z,4.4415
2023-03-27T02:26:43.651Z,4.4747
2023-03-27T02:27:44.610Z,4.4621
2023-03-27T02:28:45.414Z,4.4465
2023-03-27T02:29:46.405Z,4.4548
2023-03-27T02:30:47.368Z,4.4907
2023-03-27T02:31:47.800Z,4.4783
2023-03-27T02:32:48.242Z,4.4903
2023-03-27T02:33:49.481Z,4.4911
2023-03-27T02:34:50.359Z,4.4916
2023-03-27T02:35:51.611Z,4.4877
2023-03-27T02:36:52.535Z,4.5205
2023-03-27T02:37:52.602Z,4.4851
2023-03-27T02:38:53.684Z,4.4706
2023-03-27T02:41:56.057Z,4.4599
2023-03-27T02:42:57.004Z,4.4698
2023-03-27T02:43:58.119Z,4.4587
2023-03-27T02:44:58.250Z,4.5130
2023-03-27T02:45:59.692Z,4.5078
2023-03-27T02:47:00.606Z,4.4933
2023-03-27T02:49:02.479Z,4.4974
2023-03-27T02:50:03.521Z,4.5050
2023-03-27T02:51:04.365Z,4.4514
2023-03-27T02:52:05.331Z,4.4662
2023-03-27T02:53:06.530Z,4.4928
2023-03-27T02:54:07.338Z,4.5110
2023-03-27T02:55:08.286Z,4.5173
2023-03-27T02:56:09.089Z,4.4739
2023-03-27T02:57:10.287Z,4.4822
2023-03-27T02:58:10.526Z,4.4709
2023-03-27T03:00:11.566Z,4.4787
2023-03-27T03:01:11.855Z,4.5065
2023-03-27T03:02:12.943Z,4.4989
2023-03-27T03:03:13.966Z,4.5007
2023-03-27T03:04:14.164Z,4.4804
2023-03-27T03:05:14.985Z,4.4437
2023-03-27T03:06:15.995Z,4.4845
2023-03-27T03:07:16.856Z,4.4984
2023-03-27T03:08:17.804Z,4.5206
2023-03-27T03:09:18.851Z,4.5189
2023-03-27T03:10:20.224Z,4.5368
2023-03-27T03:11:20.338Z,4.5342
2023-03-27T03:12:21.176Z,4.5255
2023-03-27T03:13:22.209Z,4.5253
2023-03-27T03:14:23.269Z,4.4918
2023-03-27T03:15:24.113Z,4.4734
2023-03-27T03:16:24.339Z,4.4910
2023-03-27T03:17:25.417Z,4.5239
2023-03-27T03:18:26.680Z,4.4978
2023-03-27T03:19:27.477Z,4.5299
2023-03-27T03:20:28.517Z,4.5360
2023-03-27T03:21:29.524Z,4.5263
2023-03-27T03:22:30.406Z,4.4898
2023-03-27T03:23:31.447Z,4.5024
2023-03-27T03:24:32.886Z,4.4844
2023-03-27T03:25:33.867Z,4.4992
2023-03-27T03:26:34.048Z,4.5162
2023-03-27T03:27:35.081Z,4.5158
2023-03-27T03:28:36.255Z,4.5059
2023-03-27T03:30:37.571Z,4.4752
2023-03-27T03:31:37.514Z,4.4785
2023-03-27T03:32:37.803Z,4.4879
2023-03-27T03:33:37.897Z,4.5045
2023-03-27T03:34:38.917Z,4.4827
2023-03-27T03:35:40.098Z,4.4921
2023-03-27T03:36:41.248Z,4.4811
2023-03-27T03:37:42.381Z,4.4945
2023-03-27T03:38:42.535Z,4.4953
2023-03-27T03:39:43.618Z,4.5150
2023-03-27T03:41:45.571Z,4.5037
2023-03-27T03:42:45.695Z,4.4895
2023-03-27T03:43:46.665Z,4.4813
2023-03-27T03:44:47.712Z,4.4972
2023-03-27T03:45:48.978Z,4.4887
2023-03-27T03:46:49.267Z,4.5096
2023-03-27T03:47:50.530Z,4.5225
2023-03-27T03:48:51.465Z,4.5242
2023-03-27T03:49:52.641Z,4.5164
2023-03-27T03:50:53.899Z,4.5126
2023-03-27T03:52:04.437Z,4.4740
2023-03-27T03:52:56.146Z,4.4662
2023-03-27T03:53:57.278Z,4.4675
2023-03-27T03:54:58.200Z,4.4272
2023-03-27T03:55:59.193Z,4.4028
2023-03-27T03:57:00.556Z,4.4342
2023-03-27T03:58:00.604Z,4.4671
2023-03-27T03:59:01.648Z,4.4397
2023-03-27T04:00:02.705Z,4.4330
2023-03-27T04:01:03.585Z,4.4547
2023-03-27T04:04:07.005Z,4.3876
2023-03-27T04:05:11.329Z,4.3741
2023-03-27T04:07:11.421Z,4.4240
2023-03-27T04:08:12.583Z,4.4081
2023-03-27T04:09:13.561Z,4.4331
2023-03-27T04:10:14.920Z,4.4176
2023-03-27T04:11:15.863Z,4.4211
2023-03-27T04:12:16.982Z,4.3746
2023-03-27T04:13:18.125Z,4.3554
2023-03-27T04:14:19.115Z,4.4101
2023-03-27T04:15:20.205Z,4.3687
2023-03-27T04:16:21.443Z,4.3309
2023-03-27T04:17:22.573Z,4.3364
2023-03-27T04:18:23.202Z,4.3440
2023-03-27T04:19:23.834Z,4.3215
2023-03-27T04:20:23.524Z,4.2805
2023-03-27T04:21:24.622Z,4.3423
2023-03-27T04:22:25.716Z,4.3860
2023-03-27T04:24:27.335Z,4.3602
2023-03-27T04:25:28.646Z,4.3747
2023-03-27T04:26:29.890Z,4.4002
2023-03-27T04:27:31.065Z,4.3815
2023-03-27T04:28:32.010Z,4.2968
2023-03-27T04:29:33.083Z,4.3267
2023-03-27T04:30:34.116Z,4.2438
2023-03-27T04:31:35.353Z,4.2733
2023-03-27T04:32:36.561Z,4.2827
2023-03-27T04:33:37.743Z,4.2868
2023-03-27T04:34:37.616Z,4.3315
2023-03-27T04:36:39.951Z,4.2479
2023-03-27T04:37:41.103Z,4.1912
2023-03-27T04:38:42.244Z,4.1955
2023-03-27T04:39:43.246Z,4.2164
2023-03-27T04:40:43.488Z,4.2275
2023-03-27T04:41:44.629Z,4.2588
2023-03-27T04:44:47.633Z,4.3226
2023-03-27T04:45:48.771Z,4.3220
2023-03-27T04:46:49.799Z,4.3031
2023-03-27T04:48:50.885Z,4.3165
2023-03-27T04:49:51.989Z,4.3144
2023-03-27T04:50:52.948Z,4.3008
2023-03-27T04:51:54.109Z,4.3060
2023-03-27T04:52:55.228Z,4.3209
2023-03-27T04:53:56.164Z,4.2981
2023-03-27T04:54:57.265Z,4.3177
2023-03-27T04:55:58.216Z,4.3397
2023-03-27T04:59:00.227Z,4.2995
2023-03-27T05:01:02.065Z,4.2551
2023-03-27T05:03:02.830Z,4.2083
2023-03-27T05:04:04.268Z,4.1556
2023-03-27T05:05:04.497Z,4.1256
2023-03-27T05:06:05.021Z,4.1590
2023-03-27T05:07:05.345Z,4.1856
2023-03-27T05:08:06.116Z,4.1547
2023-03-27T05:09:07.255Z,4.1745
2023-03-27T05:10:08.179Z,4.1646
2023-03-27T05:11:09.442Z,4.1878
2023-03-27T05:12:09.725Z,4.2003
2023-03-27T05:13:11.239Z,4.1679
2023-03-27T05:14:11.519Z,4.1525
2023-03-27T05:15:11.895Z,4.0749
2023-03-27T05:16:11.966Z,3.9915
2023-03-27T05:17:12.637Z,4.0292
2023-03-27T05:18:12.927Z,4.0005
2023-03-27T05:19:13.723Z,4.0042
2023-03-27T05:20:14.896Z,4.0107
2023-03-27T05:21:16.109Z,4.0120
2023-03-27T05:22:17.020Z,4.0398
2023-03-27T05:23:17.396Z,4.0723
2023-03-27T05:24:17.518Z,4.0772
2023-03-27T05:26:19.129Z,4.1324
2023-03-27T05:27:19.524Z,4.1552
2023-03-27T05:28:19.521Z,4.1331
2023-03-27T05:29:20.215Z,4.1435
2023-03-27T05:30:20.640Z,4.1459
2023-03-27T05:32:21.282Z,4.1908
2023-03-27T05:33:22.389Z,4.1820
2023-03-27T05:34:23.709Z,4.1600
2023-03-27T05:35:24.262Z,4.1620
2023-03-27T05:36:25.026Z,4.1360
2023-03-27T05:37:26.995Z,4.1249
2023-03-27T05:38:25.760Z,4.1209
2023-03-27T05:41:28.090Z,3.9707
2023-03-27T05:42:29.323Z,3.9363
2023-03-27T05:43:30.344Z,3.9539
2023-03-27T05:44:30.707Z,3.9682
2023-03-27T05:45:32.024Z,3.8634
2023-03-27T05:46:32.621Z,3.8355
2023-03-27T05:47:32.749Z,3.8326
2023-03-27T05:48:33.187Z,3.8458
2023-03-27T05:49:34.713Z,3.8985
2023-03-27T05:50:35.725Z,3.7727
2023-03-27T05:51:36.433Z,3.8650
2023-03-27T05:52:36.467Z,3.8738
2023-03-27T05:53:37.377Z,3.8700
2023-03-27T05:54:38.545Z,3.8487
2023-03-27T05:55:39.515Z,3.9457
2023-03-27T05:56:40.881Z,3.9097
2023-03-27T05:57:42.124Z,3.8941
2023-03-27T05:58:43.050Z,3.8395
2023-03-27T05:59:44.175Z,3.8862
2023-03-27T06:00:45.161Z,3.9131
2023-03-27T06:01:45.421Z,3.9565
2023-03-27T06:02:46.055Z,3.9838
2023-03-27T06:04:46.910Z,3.9337
2023-03-27T06:05:48.076Z,3.8983
2023-03-27T06:06:48.582Z,3.9390
2023-03-27T06:07:48.968Z,3.9387
2023-03-27T06:08:50.140Z,3.9565
2023-03-27T06:09:51.391Z,4.0288
2023-03-27T06:10:52.560Z,4.0965
2023-03-27T06:11:53.172Z,4.0204
2023-03-27T06:12:54.192Z,4.0210
2023-03-27T06:13:55.825Z,4.0519
2023-03-27T06:14:56.120Z,4.0234
2023-03-27T06:15:56.640Z,3.9598
2023-03-27T06:17:57.518Z,4.0768
2023-03-27T06:18:57.547Z,4.0647
2023-03-27T06:19:58.535Z,4.0252
2023-03-27T06:20:59.289Z,4.0129
2023-03-27T06:21:59.490Z,4.0218
2023-03-27T06:23:00.688Z,4.1008
2023-03-27T06:24:01.786Z,4.2627
2023-03-27T06:25:02.682Z,4.3042
2023-03-27T06:26:03.898Z,4.3634
2023-03-27T06:27:04.887Z,4.3833
2023-03-27T06:28:04.959Z,4.3512
2023-03-27T06:29:08.524Z,4.4164
2023-03-27T06:30:07.310Z,4.3608
2023-03-27T06:31:08.535Z,4.3300
2023-03-27T06:32:08.534Z,4.3092
2023-03-27T06:33:09.694Z,4.3194
2023-03-27T06:34:10.911Z,4.3574
2023-03-27T06:35:12.039Z,4.3973
2023-03-27T06:36:12.782Z,4.4261
2023-03-27T06:37:12.792Z,4.4503
2023-03-27T06:38:14.023Z,4.4550
2023-03-27T06:39:15.231Z,4.4799
2023-03-27T06:40:16.408Z,4.4441
2023-03-27T06:41:17.601Z,4.3775
2023-03-27T06:42:18.841Z,4.2819
2023-03-27T06:43:19.928Z,4.3181
2023-03-27T06:44:19.964Z,4.3397
2023-03-27T06:45:21.073Z,4.3070
2023-03-27T06:46:21.126Z,4.3249
2023-03-27T06:47:21.445Z,4.3715
2023-03-27T06:48:23.400Z,4.3324
2023-03-27T06:49:23.214Z,4.2994
2023-03-27T06:50:24.315Z,4.3602
2023-03-27T06:51:24.805Z,4.4021
2023-03-27T06:52:25.846Z,4.3290
2023-03-27T06:55:27.475Z,4.3958
2023-03-27T06:57:29.715Z,4.4430
2023-03-27T06:58:30.888Z,4.5143
2023-03-27T06:59:31.915Z,4.4735
2023-03-27T07:00:33.068Z,4.3784
2023-03-27T07:01:34.403Z,4.4670
2023-03-27T07:02:35.727Z,4.4194
2023-03-27T07:03:35.824Z,4.4448
2023-03-27T07:04:36.839Z,4.3961
2023-03-27T07:05:37.991Z,4.4020
2023-03-27T07:06:39.564Z,4.3498
2023-03-27T07:07:40.331Z,4.3350
2023-03-27T07:08:38.994Z,4.3914
2023-03-27T07:09:40.166Z,4.3881
2023-03-27T07:10:40.128Z,4.4666
2023-03-27T07:11:40.533Z,4.3961
2023-03-27T07:12:41.709Z,4.3393
2023-03-27T07:13:42.911Z,4.3177
2023-03-27T07:14:43.921Z,4.3157
2023-03-27T07:15:45.146Z,4.3848
2023-03-27T07:16:45.340Z,4.3048
2023-03-27T07:17:50.300Z,4.3177
2023-03-27T07:18:50.323Z,4.2373
2023-03-27T07:19:51.600Z,4.3031
2023-03-27T07:20:52.810Z,4.2732
2023-03-27T07:21:53.045Z,4.1673
2023-03-27T07:22:56.418Z,4.0947
2023-03-27T07:23:54.354Z,4.1630
2023-03-27T07:24:55.446Z,4.1172
2023-03-27T07:25:56.820Z,4.2043
2023-03-27T07:26:56.686Z,4.2947
2023-03-27T07:27:57.850Z,4.2748
2023-03-27T07:29:00.612Z,4.3428
2023-03-27T07:29:59.442Z,4.2547
2023-03-27T07:31:01.337Z,4.3471
2023-03-27T07:33:02.938Z,4.3283
2023-03-27T07:34:04.196Z,4.1723
2023-03-27T07:35:05.310Z,4.1826
2023-03-27T07:36:05.651Z,4.0756
2023-03-27T07:37:06.911Z,4.1151
2023-03-27T07:38:07.593Z,4.3433
2023-03-27T07:39:08.853Z,4.2575
2023-03-27T07:40:09.850Z,4.1536
2023-03-27T07:41:11.033Z,4.2508
2023-03-27T07:42:12.174Z,4.2381
2023-03-27T07:43:13.228Z,4.2654
2023-03-27T07:44:14.412Z,4.3174
2023-03-27T07:45:14.589Z,4.3859
2023-03-27T07:46:14.775Z,4.5121
2023-03-27T07:47:15.995Z,4.6212
2023-03-27T07:48:17.333Z,4.4764
2023-03-27T07:49:17.549Z,4.4918
2023-03-27T07:50:17.989Z,4.6706
2023-03-27T07:51:19.044Z,4.5933
2023-03-27T07:52:20.109Z,4.6545
2023-03-27T07:53:33.269Z,4.6548
2023-03-27T07:54:21.009Z,4.7134
2023-03-27T07:56:23.092Z,4.5638
2023-03-27T07:57:23.797Z,4.4741
2023-03-27T07:58:25.422Z,4.4208
2023-03-27T07:59:26.622Z,4.3707
2023-03-27T08:00:27.883Z,4.3726
2023-03-27T08:01:28.907Z,4.4735
2023-03-27T08:02:30.122Z,4.4688
2023-03-27T08:03:31.365Z,4.6222
2023-03-27T08:04:32.167Z,4.3865
2023-03-27T08:05:32.419Z,4.3638
2023-03-27T08:06:32.867Z,4.3531
2023-03-27T08:07:33.861Z,4.3434
2023-03-27T08:08:35.009Z,4.3922
2023-03-27T08:09:35.129Z,4.4238
2023-03-27T08:10:36.325Z,4.3558
2023-03-27T08:11:36.670Z,4.4134
2023-03-27T08:12:37.694Z,4.4871
2023-03-27T08:13:38.891Z,4.9023
2023-03-27T08:14:39.939Z,4.9111
2023-03-27T08:15:41.098Z,5.0660
2023-03-27T08:16:41.793Z,5.1144
2023-03-27T08:18:43.894Z,4.8326
2023-03-27T08:19:45.147Z,4.5882
2023-03-27T08:20:46.113Z,4.3403
2023-03-27T08:21:47.451Z,4.1910
2023-03-27T08:22:48.486Z,4.1907
2023-03-27T08:23:49.634Z,4.3374
2023-03-27T08:24:50.743Z,4.3553
2023-03-27T08:25:51.770Z,4.0992
2023-03-27T08:26:53.110Z,4.1852
2023-03-27T08:27:54.189Z,4.1714
2023-03-27T08:28:55.354Z,4.1300
2023-03-27T08:29:56.671Z,4.2292
2023-03-27T08:31:02.905Z,4.2576
2023-03-27T08:31:58.198Z,4.1303
2023-03-27T08:32:59.466Z,3.9747
2023-03-27T08:33:59.533Z,3.9344
2023-03-27T08:35:00.581Z,3.9157
2023-03-27T08:37:02.206Z,3.9139
2023-03-27T08:38:04.667Z,3.8183
2023-03-27T08:39:04.688Z,3.8645
2023-03-27T08:40:05.811Z,3.9616
2023-03-27T08:41:07.058Z,3.9764
2023-03-27T08:42:08.113Z,3.8750
2023-03-27T08:43:09.280Z,3.9230
2023-03-27T08:44:10.306Z,3.8815
2023-03-27T08:45:11.455Z,3.9209
2023-03-27T08:46:12.620Z,3.9782
2023-03-27T08:47:12.581Z,3.9683
2023-03-27T08:48:13.923Z,4.0198
2023-03-27T08:49:15.007Z,3.9905
2023-03-27T08:50:16.159Z,4.0361
2023-03-27T08:51:17.346Z,4.1351
2023-03-27T08:52:18.384Z,3.9521
2023-03-27T08:53:19.608Z,3.9882
2023-03-27T08:54:20.154Z,3.8569
2023-03-27T08:55:21.437Z,3.8670
2023-03-27T08:56:22.046Z,3.9085
2023-03-27T08:57:22.365Z,4.0978
2023-03-27T08:58:23.633Z,4.1618
2023-03-27T08:59:24.080Z,4.2093
2023-03-27T09:00:25.344Z,4.1203
2023-03-27T09:01:25.410Z,4.2864
2023-03-27T09:02:25.420Z,4.1780
2023-03-27T09:03:25.820Z,4.1980
2023-03-27T09:04:25.893Z,4.4883
2023-03-27T09:05:27.220Z,4.3060
2023-03-27T09:06:27.614Z,4.2350
2023-03-27T09:07:28.947Z,4.0947
2023-03-27T09:08:28.972Z,4.3351
2023-03-27T09:09:28.968Z,4.4287
2023-03-27T09:10:29.151Z,4.3286
2023-03-27T09:11:29.529Z,4.5468
2023-03-27T09:12:30.330Z,4.2322
2023-03-27T09:13:30.705Z,4.0775
2023-03-27T09:14:31.977Z,4.2780
2023-03-27T09:15:33.094Z,3.9536
2023-03-27T09:16:33.256Z,3.8414
2023-03-27T09:17:34.677Z,3.8903
2023-03-27T09:18:35.806Z,3.7157
2023-03-27T09:19:37.019Z,3.8100
2023-03-27T09:20:38.170Z,3.8082
2023-03-27T09:21:39.442Z,3.8077
2023-03-27T09:23:40.438Z,3.7634
2023-03-27T09:24:41.868Z,3.8159
2023-03-27T09:25:42.954Z,3.9577
2023-03-27T09:26:43.535Z,4.0611
2023-03-27T09:27:44.432Z,4.0661
2023-03-27T09:28:46.874Z,4.5032
2023-03-27T09:29:46.415Z,4.0644
2023-03-27T09:30:46.633Z,4.2925
2023-03-27T09:31:47.148Z,4.1117
2023-03-27T09:34:49.758Z,3.7255
2023-03-27T09:35:50.263Z,3.9364
2023-03-27T09:36:50.724Z,4.0994
2023-03-27T09:37:51.227Z,3.8146
2023-03-27T09:38:52.517Z,3.8491
2023-03-27T09:39:53.631Z,3.9386
2023-03-27T09:41:55.991Z,4.1144
2023-03-27T09:43:56.970Z,4.6195
2023-03-27T09:44:58.266Z,4.2838
2023-03-27T09:45:59.374Z,4.2199
2023-03-27T09:50:02.845Z,4.3153
2023-03-27T09:51:03.207Z,4.4648
2023-03-27T09:52:04.620Z,4.7196
2023-03-27T09:53:05.762Z,4.9492
2023-03-27T09:55:08.023Z,5.2961
2023-03-27T09:56:09.272Z,5.7830
2023-03-27T09:57:10.607Z,6.7500
2023-03-27T09:58:10.589Z,7.4242
2023-03-27T09:59:11.875Z,6.6991
2023-03-27T10:00:12.973Z,6.5798
2023-03-27T10:01:13.527Z,6.5216
2023-03-27T10:02:14.870Z,5.8399
2023-03-27T10:03:14.999Z,6.6892
2023-03-27T10:04:15.803Z,6.6063
2023-03-27T10:05:15.810Z,7.4959
2023-03-27T10:07:18.219Z,6.1224
2023-03-27T10:08:19.538Z,5.7420
2023-03-27T10:09:20.396Z,5.7213
2023-03-27T10:10:21.701Z,5.4437
2023-03-27T10:11:22.848Z,5.2728
2023-03-27T10:12:24.136Z,4.9032
2023-03-27T10:13:24.111Z,4.8537
2023-03-27T10:14:25.245Z,5.0909
2023-03-27T10:15:25.740Z,5.0972
2023-03-27T10:16:27.077Z,5.3224
2023-03-27T10:17:27.261Z,5.5961
2023-03-27T10:18:27.294Z,5.6039
2023-03-27T10:19:27.252Z,5.5939
2023-03-27T10:20:28.505Z,5.3363
2023-03-27T10:21:28.564Z,5.7151
2023-03-27T10:22:29.021Z,5.6546
2023-03-27T10:23:30.283Z,5.8383
2023-03-27T10:25:31.211Z,7.2448
2023-03-27T10:26:32.500Z,6.2885
2023-03-27T10:29:36.760Z,5.6160
2023-03-27T10:30:36.216Z,5.6586
2023-03-27T10:32:37.687Z,5.2701
2023-03-27T10:33:38.632Z,5.2411
2023-03-27T10:34:39.764Z,5.5060
2023-03-27T10:35:40.173Z,5.7151
2023-03-27T10:36:41.618Z,6.2443
2023-03-27T10:37:50.141Z,6.1853
2023-03-27T10:38:44.271Z,5.8614
2023-03-27T10:39:45.587Z,5.7773
2023-03-27T10:40:45.570Z,6.0497
2023-03-27T10:41:45.942Z,5.7658
2023-03-27T10:42:47.299Z,6.1548
2023-03-27T10:43:48.443Z,6.5492
2023-03-27T10:44:48.495Z,6.3589
2023-03-27T10:45:50.016Z,6.2236
2023-03-27T10:46:50.079Z,6.2347
2023-03-27T10:48:51.472Z,6.1549
2023-03-27T10:49:52.501Z,6.2429
2023-03-27T10:50:53.609Z,6.5281
2023-03-27T10:51:54.001Z,6.6648
2023-03-27T10:52:54.122Z,6.2683
2023-03-27T10:53:55.287Z,6.2328
2023-03-27T10:54:56.389Z,6.5320
2023-03-27T10:55:57.682Z,6.5521
2023-03-27T10:56:57.920Z,6.9556
2023-03-27T10:57:59.277Z,6.4302
2023-03-27T10:59:00.413Z,6.0090
2023-03-27T11:00:01.298Z,6.6805
2023-03-27T11:01:02.976Z,6.1142
2023-03-27T11:02:02.965Z,6.2715
2023-03-27T11:03:03.907Z,6.1466
2023-03-27T11:04:05.263Z,6.1563
2023-03-27T11:06:06.359Z,5.8957
2023-03-27T11:07:07.623Z,6.0007
2023-03-27T11:08:08.031Z,6.3055
2023-03-27T11:09:09.336Z,6.6511
2023-03-27T11:10:10.615Z,6.9670
2023-03-27T11:11:11.747Z,6.7390
2023-03-27T11:12:13.066Z,6.8544
2023-03-27T11:13:14.298Z,6.7468
2023-03-27T11:14:15.622Z,6.8518
2023-03-27T11:16:16.751Z,6.1495
2023-03-27T11:17:17.490Z,6.1305
2023-03-27T11:18:18.247Z,6.1082
2023-03-27T11:19:19.577Z,5.7931
2023-03-27T11:20:20.666Z,5.7811
2023-03-27T11:21:21.911Z,6.4311
2023-03-27T11:22:23.214Z,7.0001
2023-03-27T11:23:24.341Z,6.8521
2023-03-27T11:24:25.661Z,6.7070
2023-03-27T11:25:26.887Z,6.1369
2023-03-27T11:26:28.133Z,6.6508
2023-03-27T11:27:29.494Z,6.5535
2023-03-27T11:28:30.591Z,6.3332
2023-03-27T11:29:31.874Z,6.3794
2023-03-27T11:30:32.957Z,6.0559
2023-03-27T11:31:33.645Z,6.0687
2023-03-27T11:33:34.907Z,6.4819
2023-03-27T11:34:35.319Z,6.1579
2023-03-27T11:36:37.897Z,6.4858
2023-03-27T11:37:39.064Z,6.8335
2023-03-27T11:38:39.138Z,6.7030
2023-03-27T11:40:41.397Z,6.7723
2023-03-27T11:41:42.173Z,6.7230
2023-03-27T11:42:42.130Z,6.1323
2023-03-27T11:43:42.270Z,5.9798
2023-03-27T11:44:43.544Z,6.2200
2023-03-27T11:45:43.593Z,6.0252
2023-03-27T11:47:44.026Z,6.2935
2023-03-27T11:48:44.222Z,6.9313
2023-03-27T11:49:44.267Z,6.0885
2023-03-27T11:50:45.449Z,6.2233
2023-03-27T11:51:45.467Z,5.6710
2023-03-27T11:52:46.700Z,5.5602
2023-03-27T11:53:46.815Z,5.8582
2023-03-27T11:54:48.015Z,5.9222
2023-03-27T11:55:48.012Z,5.9050
2023-03-27T11:56:49.267Z,5.9575
2023-03-27T11:57:49.404Z,6.5581
2023-03-27T11:58:50.652Z,6.4644
2023-03-27T11:59:50.723Z,6.3114
2023-03-27T12:01:52.962Z,5.9667
2023-03-27T12:02:53.688Z,6.2197
2023-03-27T12:03:53.894Z,6.4610
2023-03-27T12:04:54.238Z,6.8208
2023-03-27T12:05:54.314Z,6.3073
2023-03-27T12:06:56.997Z,6.7050
2023-03-27T12:07:55.720Z,7.1754
2023-03-27T12:08:56.718Z,7.2903
2023-03-27T12:09:57.922Z,6.8580
2023-03-27T12:10:58.138Z,7.4992
2023-03-27T12:11:58.106Z,6.8041
2023-03-27T12:12:59.419Z,6.8887
2023-03-27T12:14:06.961Z,6.5712
2023-03-27T12:15:03.454Z,6.3150
2023-03-27T12:16:04.676Z,6.6790
2023-03-27T12:17:04.872Z,7.1136
2023-03-27T12:18:06.279Z,7.0986
2023-03-27T12:19:20.976Z,6.6330
2023-03-27T12:20:08.800Z,6.4865
2023-03-27T12:21:09.231Z,5.9865
2023-03-27T12:22:21.009Z,6.2164
2023-03-27T12:23:11.419Z,5.8846
2023-03-27T12:24:12.610Z,5.8377
2023-03-27T12:25:13.069Z,5.8262
2023-03-27T12:26:13.127Z,6.0404
2023-03-27T12:27:14.366Z,5.9705
2023-03-27T12:28:23.061Z,5.8259
2023-03-27T12:29:23.203Z,5.6090
2023-03-27T12:30:15.580Z,5.6793
2023-03-27T12:31:15.575Z,5.4938
2023-03-27T12:32:15.892Z,5.5245
2023-03-27T12:33:16.152Z,5.8667
2023-03-27T12:34:16.150Z,5.9372
2023-03-27T12:36:16.732Z,5.7322
2023-03-27T12:37:16.733Z,5.7760
2023-03-27T12:38:17.980Z,5.6706
2023-03-27T12:39:18.113Z,5.9878
2023-03-27T12:40:19.329Z,5.9394
2023-03-27T12:41:19.372Z,5.7775
2023-03-27T12:42:20.634Z,5.8888
2023-03-27T12:43:21.254Z,6.1858
2023-03-27T12:44:22.508Z,5.9911
2023-03-27T12:45:22.544Z,6.0083
2023-03-27T12:46:23.562Z,6.4107
2023-03-27T12:47:23.397Z,6.3673
2023-03-27T12:48:24.692Z,6.6379
2023-03-27T12:49:31.576Z,6.8333
2023-03-27T12:50:25.931Z,6.5987
2023-03-27T12:51:26.635Z,6.5452
2023-03-27T12:52:26.950Z,6.2698
2023-03-27T12:53:26.788Z,6.0707
2023-03-27T12:54:27.401Z,6.1015
2023-03-27T12:55:28.613Z,6.1035
2023-03-27T12:56:28.890Z,5.8310
2023-03-27T12:57:29.700Z,5.9549
2023-03-27T12:58:29.765Z,5.9202
2023-03-27T12:59:29.834Z,5.8619
2023-03-27T13:00:30.009Z,5.7824
2023-03-27T13:01:38.894Z,5.9034
2023-03-27T13:02:32.258Z,5.8275
2023-03-27T13:03:32.866Z,5.7739
2023-03-27T13:04:33.175Z,5.7369
2023-03-27T13:06:35.299Z,6.1322
2023-03-27T13:08:36.767Z,5.8394
2023-03-27T13:09:37.988Z,5.7271
2023-03-27T13:10:38.231Z,6.0153
2023-03-27T13:11:38.726Z,6.3455
2023-03-27T13:13:39.872Z,6.2224
2023-03-27T13:14:40.002Z,6.2203
2023-03-27T13:16:41.762Z,6.3281
2023-03-27T13:17:43.003Z,6.3289
2023-03-27T13:18:43.408Z,6.1547
2023-03-27T13:19:43.936Z,6.2700
2023-03-27T13:20:44.029Z,6.0795
2023-03-27T13:21:44.151Z,5.9635
2023-03-27T13:22:44.153Z,5.9229
2023-03-27T13:24:46.527Z,6.3270
2023-03-27T13:25:47.722Z,6.5838
2023-03-27T13:26:48.266Z,6.3521
2023-03-27T13:29:50.692Z,6.2001
2023-03-27T13:30:51.549Z,6.3511
2023-03-27T13:31:51.940Z,6.3470
2023-03-27T13:32:53.469Z,6.7443
2023-03-27T13:33:53.686Z,7.6172
2023-03-27T13:34:53.822Z,8.5744
2023-03-27T13:35:55.240Z,11.4019
2023-03-27T13:37:56.738Z,10.6826
2023-03-27T13:38:56.768Z,9.9619
2023-03-27T13:39:57.982Z,10.3151
2023-03-27T13:40:58.031Z,10.0358
2023-03-27T13:42:01.685Z,11.1534
2023-03-27T13:42:59.667Z,10.5706
2023-03-27T13:43:59.779Z,10.5867
2023-03-27T13:45:01.209Z,9.7119
2023-03-27T13:46:02.465Z,10.8706
2023-03-27T13:47:02.742Z,11.1731
2023-03-27T13:48:02.870Z,10.4508
2023-03-27T13:49:02.953Z,10.4252
2023-03-27T13:50:04.302Z,11.3269
2023-03-27T13:52:05.413Z,11.2131